createdAt,value
2023-05-30T00:03:40.000Z,18.27
2023-05-30T00:07:52.541Z,18.15
2023-05-30T00:12:05.731Z,18.27
2023-05-30T00:16:21.041Z,18.10
2023-05-30T00:20:35.167Z,17.97
2023-05-30T00:24:47.666Z,17.87
2023-05-30T00:29:00.206Z,18.02
2023-05-30T00:33:14.445Z,17.86
2023-05-30T00:37:27.730Z,17.69
2023-05-30T00:41:40.163Z,17.58
2023-05-30T00:45:55.309Z,17.51
2023-05-30T00:50:09.611Z,17.43
2023-05-30T00:54:23.705Z,17.41
2023-05-30T00:58:37.606Z,17.36
2023-05-30T01:02:51.621Z,17.36
2023-05-30T01:07:06.090Z,17.70
2023-05-30T01:11:36.496Z,17.73
2023-05-30T01:15:56.300Z,17.55
2023-05-30T01:20:21.889Z,17.58
2023-05-30T01:24:46.518Z,17.45
2023-05-30T01:29:04.227Z,17.34
2023-05-30T01:33:18.862Z,17.32
2023-05-30T01:37:33.586Z,17.43
2023-05-30T01:42:03.217Z,17.44
2023-05-30T01:46:38.509Z,17.19
2023-05-30T01:50:52.334Z,17.30
2023-05-30T01:55:07.501Z,17.26
2023-05-30T01:59:21.884Z,17.36
2023-05-30T02:03:34.497Z,17.23
2023-05-30T02:07:46.977Z,17.00
2023-05-30T02:12:00.419Z,16.97
2023-05-30T02:16:14.751Z,17.00
2023-05-30T02:20:27.547Z,16.86
2023-05-30T02:24:40.115Z,16.75
2023-05-30T02:28:52.724Z,16.79
2023-05-30T02:33:05.466Z,16.67
2023-05-30T02:37:17.958Z,16.84
2023-05-30T02:41:30.391Z,16.70
2023-05-30T02:45:42.900Z,16.53
2023-05-30T02:49:55.378Z,16.58
2023-05-30T02:54:08.152Z,16.51
2023-05-30T02:58:49.589Z,16.34
2023-05-30T03:03:20.580Z,16.45
2023-05-30T03:07:36.937Z,16.59
2023-05-30T03:11:50.563Z,16.39
2023-05-30T03:16:03.203Z,16.47
2023-05-30T03:20:17.411Z,16.43
2023-05-30T03:24:31.074Z,16.45
2023-05-30T03:28:43.974Z,16.65
2023-05-30T03:33:08.211Z,16.59
2023-05-30T03:37:21.736Z,16.47
2023-05-30T03:41:34.300Z,16.41
2023-05-30T03:45:46.959Z,16.38
2023-05-30T03:50:01.187Z,16.39
2023-05-30T03:54:13.724Z,16.67
2023-05-30T03:58:26.300Z,16.69
2023-05-30T04:02:42.359Z,16.70
2023-05-30T04:06:55.165Z,16.77
2023-05-30T04:11:09.568Z,16.76
2023-05-30T04:15:22.005Z,16.87
2023-05-30T04:19:35.643Z,16.97
2023-05-30T04:23:48.630Z,17.03
2023-05-30T04:28:01.248Z,17.46
2023-05-30T04:32:14.224Z,18.94
2023-05-30T04:36:28.695Z,21.40
2023-05-30T04:40:41.083Z,21.55
2023-05-30T04:44:54.881Z,21.57
2023-05-30T04:49:07.741Z,22.02
2023-05-30T04:53:22.759Z,20.80
2023-05-30T04:57:38.488Z,19.81
2023-05-30T05:01:51.230Z,19.31
2023-05-30T05:06:03.907Z,19.60
2023-05-30T05:10:16.455Z,19.73
2023-05-30T05:14:29.066Z,21.09
2023-05-30T05:18:41.611Z,22.07
2023-05-30T05:22:55.751Z,21.10
2023-05-30T05:27:08.396Z,21.39
2023-05-30T05:31:21.073Z,22.09
2023-05-30T05:35:33.634Z,22.20
2023-05-30T05:39:46.152Z,22.76
2023-05-30T05:43:58.663Z,22.31
2023-05-30T05:48:11.327Z,22.34
2023-05-30T05:52:23.859Z,22.23
2023-05-30T05:56:37.529Z,22.18
2023-05-30T06:00:50.002Z,22.36
2023-05-30T06:05:02.667Z,23.29
2023-05-30T06:09:15.452Z,24.36
2023-05-30T06:13:28.031Z,24.22
2023-05-30T06:17:40.598Z,24.16
2023-05-30T06:21:53.309Z,24.71
2023-05-30T06:26:06.478Z,25.05
2023-05-30T06:30:20.718Z,25.33
2023-05-30T06:34:33.261Z,25.52
2023-05-30T06:38:46.430Z,25.14
2023-05-30T06:42:59.684Z,25.06
2023-05-30T06:47:12.340Z,24.11
2023-05-30T06:51:24.970Z,24.49
2023-05-30T06:55:37.521Z,24.69
2023-05-30T06:59:49.969Z,24.72
2023-05-30T07:04:02.450Z,24.79
2023-05-30T07:08:14.868Z,24.95
2023-05-30T07:12:28.428Z,25.53
2023-05-30T07:16:40.840Z,25.09
2023-05-30T07:20:53.508Z,25.30
2023-05-30T07:25:07.822Z,24.69
2023-05-30T07:29:20.209Z,24.52
2023-05-30T07:33:32.618Z,24.36
2023-05-30T07:37:46.574Z,24.69
2023-05-30T07:41:58.933Z,25.12
2023-05-30T07:46:11.601Z,25.60
2023-05-30T07:50:24.137Z,26.07
2023-05-30T07:54:36.618Z,26.36
2023-05-30T07:58:50.163Z,26.19
2023-05-30T08:03:02.578Z,25.62
2023-05-30T08:07:15.226Z,26.44
2023-05-30T08:11:27.705Z,26.10
2023-05-30T08:15:40.519Z,26.48
2023-05-30T08:19:57.359Z,27.01
2023-05-30T08:24:09.844Z,26.89
2023-05-30T08:28:23.124Z,25.91
2023-05-30T08:32:35.941Z,26.55
2023-05-30T08:36:48.488Z,26.81
2023-05-30T08:41:01.299Z,27.25
2023-05-30T08:45:13.852Z,28.40
2023-05-30T08:49:26.780Z,28.61
2023-05-30T08:53:44.353Z,28.37
2023-05-30T08:58:05.978Z,27.50
2023-05-30T09:02:20.998Z,27.67
2023-05-30T09:06:36.813Z,27.58
2023-05-30T09:10:50.555Z,26.67
2023-05-30T09:15:03.194Z,26.91
2023-05-30T09:19:16.326Z,27.00
2023-05-30T09:23:30.541Z,27.56
2023-05-30T09:27:48.363Z,27.85
2023-05-30T09:32:01.027Z,27.86
2023-05-30T09:36:21.547Z,27.37
2023-05-30T09:40:34.005Z,28.19
2023-05-30T09:44:55.852Z,27.33
2023-05-30T09:49:13.547Z,27.12
2023-05-30T09:53:33.648Z,26.78
2023-05-30T09:57:51.300Z,27.81
2023-05-30T10:02:03.879Z,29.04
2023-05-30T10:06:17.326Z,29.19
2023-05-30T10:10:31.842Z,28.04
2023-05-30T10:14:45.189Z,26.16
2023-05-30T10:19:01.154Z,25.94
2023-05-30T10:23:15.111Z,25.90
2023-05-30T10:27:33.039Z,25.68
2023-05-30T10:31:46.342Z,25.31
2023-05-30T10:35:59.497Z,25.36
2023-05-30T10:40:33.683Z,24.79
2023-05-30T10:45:12.057Z,24.33
2023-05-30T10:49:29.992Z,24.31
2023-05-30T10:53:44.882Z,23.99
2023-05-30T10:57:57.532Z,23.73
2023-05-30T11:02:10.183Z,23.50
2023-05-30T11:06:22.650Z,22.94
2023-05-30T11:10:35.106Z,23.07
2023-05-30T11:14:56.647Z,22.98
2023-05-30T11:19:12.775Z,22.77
2023-05-30T11:23:26.156Z,21.88
2023-05-30T11:27:38.752Z,20.96
2023-05-30T11:31:54.655Z,21.10
2023-05-30T11:36:10.515Z,21.05
2023-05-30T11:40:23.595Z,20.84
2023-05-30T11:44:36.244Z,21.01
2023-05-30T11:48:48.728Z,21.21
2023-05-30T11:53:01.448Z,21.33
2023-05-30T11:57:18.444Z,21.28
2023-05-30T12:01:31.287Z,21.85
2023-05-30T12:05:45.175Z,22.45
2023-05-30T12:09:57.893Z,21.76
2023-05-30T12:14:10.467Z,21.62
2023-05-30T12:18:23.006Z,21.55
2023-05-30T12:22:36.269Z,21.65
2023-05-30T12:26:50.033Z,21.50
2023-05-30T12:31:03.406Z,21.45
2023-05-30T12:35:20.031Z,21.44
2023-05-30T12:39:34.066Z,22.16
2023-05-30T12:43:46.495Z,22.01
2023-05-30T12:47:59.118Z,22.01
2023-05-30T12:52:15.608Z,21.65
2023-05-30T12:56:29.631Z,21.26
2023-05-30T13:00:42.162Z,20.73
2023-05-30T13:04:55.609Z,19.94
2023-05-30T13:09:08.122Z,19.67
2023-05-30T13:13:20.781Z,19.65
2023-05-30T13:17:33.330Z,19.89
2023-05-30T13:21:46.065Z,19.93
2023-05-30T13:25:58.596Z,19.60
2023-05-30T13:30:13.623Z,19.76
2023-05-30T13:34:26.451Z,19.45
2023-05-30T13:38:40.747Z,19.13
2023-05-30T13:42:53.276Z,19.17
2023-05-30T13:47:08.457Z,19.17
2023-05-30T13:51:22.055Z,19.17
2023-05-30T13:55:34.711Z,19.44
2023-05-30T13:59:47.453Z,19.80
2023-05-30T14:04:01.189Z,19.89
2023-05-30T14:08:13.820Z,19.96
2023-05-30T14:12:26.615Z,20.66
2023-05-30T14:16:39.061Z,20.95
2023-05-30T14:20:52.005Z,21.79
2023-05-30T14:25:05.328Z,22.61
2023-05-30T14:29:17.837Z,22.67
2023-05-30T14:33:30.207Z,23.64
2023-05-30T14:37:42.692Z,24.41
2023-05-30T14:41:56.099Z,24.16
2023-05-30T14:46:08.787Z,24.88
2023-05-30T14:50:22.665Z,24.60
2023-05-30T14:54:35.150Z,25.37
2023-05-30T14:58:47.601Z,25.63
2023-05-30T15:03:00.607Z,25.47
2023-05-30T15:07:13.677Z,25.53
2023-05-30T15:11:27.066Z,25.03
2023-05-30T15:15:39.549Z,24.96
2023-05-30T15:19:52.120Z,24.77
2023-05-30T15:24:04.862Z,24.97
2023-05-30T15:28:17.388Z,24.67
2023-05-30T15:32:29.793Z,24.07
2023-05-30T15:36:42.545Z,24.10
2023-05-30T15:40:56.472Z,24.65
2023-05-30T15:45:09.863Z,24.26
2023-05-30T15:49:22.247Z,24.36
2023-05-30T15:53:34.679Z,24.54
2023-05-30T15:57:47.172Z,23.87
2023-05-30T16:02:01.455Z,23.75
2023-05-30T16:06:13.943Z,24.34
2023-05-30T16:10:26.466Z,23.92
2023-05-30T16:14:38.919Z,23.79
2023-05-30T16:18:51.366Z,24.05
2023-05-30T16:23:03.768Z,24.40
2023-05-30T16:27:17.332Z,24.41
2023-05-30T16:31:30.451Z,24.41
2023-05-30T16:35:43.047Z,24.26
2023-05-30T16:39:55.539Z,24.09
2023-05-30T16:44:08.405Z,23.93
2023-05-30T16:48:20.917Z,24.08
2023-05-30T16:52:33.564Z,23.41
2023-05-30T16:56:46.472Z,23.37
2023-05-30T17:00:59.194Z,23.45
2023-05-30T17:05:12.235Z,23.73
2023-05-30T17:09:24.663Z,23.73
2023-05-30T17:13:37.142Z,23.61
2023-05-30T17:17:53.416Z,23.42
2023-05-30T17:22:06.231Z,23.34
2023-05-30T17:26:18.645Z,23.18
2023-05-30T17:30:31.072Z,23.07
2023-05-30T17:34:43.519Z,22.97
2023-05-30T17:38:55.955Z,22.71
2023-05-30T17:43:08.516Z,22.67
2023-05-30T17:47:21.114Z,22.55
2023-05-30T17:51:33.932Z,22.36
2023-05-30T17:55:46.600Z,22.20
2023-05-30T17:59:59.320Z,22.08
2023-05-30T18:04:11.906Z,21.94
2023-05-30T18:08:24.433Z,21.80
2023-05-30T18:12:36.878Z,21.60
2023-05-30T18:16:50.045Z,21.54
2023-05-30T18:21:04.915Z,21.35
2023-05-30T18:25:17.535Z,21.30
2023-05-30T18:29:30.462Z,21.21
2023-05-30T18:33:42.943Z,21.18
2023-05-30T18:37:55.441Z,21.12
2023-05-30T18:42:08.584Z,20.99
2023-05-30T18:46:22.401Z,20.78
2023-05-30T18:50:34.826Z,20.62
2023-05-30T18:54:47.301Z,20.49
2023-05-30T18:59:00.382Z,20.39
2023-05-30T19:03:12.970Z,20.32
2023-05-30T19:07:26.264Z,20.32
2023-05-30T19:11:38.693Z,20.33
2023-05-30T19:15:51.927Z,20.25
2023-05-30T19:20:04.593Z,20.23
2023-05-30T19:24:17.058Z,20.14
2023-05-30T19:28:31.745Z,20.03
2023-05-30T19:32:44.188Z,20.13
2023-05-30T19:36:57.384Z,19.97
2023-05-30T19:41:09.945Z,19.89
2023-05-30T19:45:22.654Z,19.87
2023-05-30T19:49:36.277Z,19.90
2023-05-30T19:53:48.771Z,19.85
2023-05-30T19:58:01.355Z,19.67
2023-05-30T20:02:13.962Z,19.61
2023-05-30T20:06:31.122Z,19.49
2023-05-30T20:10:43.625Z,19.47
2023-05-30T20:14:56.128Z,19.47
2023-05-30T20:19:08.614Z,19.48
2023-05-30T20:23:21.311Z,19.39
2023-05-30T20:27:38.631Z,19.36
2023-05-30T20:31:51.199Z,19.35
2023-05-30T20:36:03.674Z,19.34
2023-05-30T20:40:16.178Z,19.23
2023-05-30T20:44:28.673Z,19.16
2023-05-30T20:48:41.107Z,19.11
2023-05-30T20:52:53.718Z,19.01
2023-05-30T20:57:20.983Z,18.84
2023-05-30T21:01:37.295Z,18.75
2023-05-30T21:05:53.313Z,18.76
2023-05-30T21:10:07.041Z,18.73
2023-05-30T21:14:19.582Z,18.80
2023-05-30T21:18:34.503Z,18.60
2023-05-30T21:22:47.043Z,18.50
2023-05-30T21:26:59.728Z,18.35
2023-05-30T21:31:12.279Z,18.28
2023-05-30T21:35:24.963Z,18.20
2023-05-30T21:39:37.509Z,18.14
2023-05-30T21:43:50.009Z,18.20
2023-05-30T21:48:02.783Z,18.10
2023-05-30T21:52:15.361Z,18.12
2023-05-30T21:56:27.899Z,18.33
2023-05-30T22:00:42.339Z,18.56
2023-05-30T22:05:00.534Z,18.40
2023-05-30T22:09:13.029Z,18.30
2023-05-30T22:14:30.372Z,18.34
2023-05-30T22:18:43.097Z,18.26
2023-05-30T22:22:55.828Z,18.23
2023-05-30T22:27:11.266Z,18.08
2023-05-30T22:31:24.005Z,18.09
2023-05-30T22:35:36.724Z,18.16
2023-05-30T22:39:49.803Z,18.16
2023-05-30T22:44:08.455Z,17.92
2023-05-30T22:48:21.482Z,18.05
2023-05-30T22:52:34.052Z,17.87
2023-05-30T22:56:46.619Z,18.03
2023-05-30T23:00:59.328Z,17.86
2023-05-30T23:05:12.348Z,17.96
2023-05-30T23:09:25.120Z,17.78
2023-05-30T23:13:37.772Z,17.71
2023-05-30T23:17:50.419Z,17.79
2023-05-30T23:22:03.234Z,17.64
2023-05-30T23:26:15.907Z,17.70
2023-05-30T23:30:28.736Z,17.57
2023-05-30T23:34:41.675Z,17.82
2023-05-30T23:38:54.269Z,17.54
2023-05-30T23:43:06.771Z,17.69
2023-05-30T23:47:19.456Z,17.58
2023-05-30T23:51:32.530Z,17.42
2023-05-30T23:55:45.326Z,17.36
